createdAt,value
2022-08-02T00:00:56.695Z,17.55
2022-08-02T00:03:24.467Z,17.45
2022-08-02T00:05:53.621Z,17.22
2022-08-02T00:08:21.889Z,17.66
2022-08-02T00:10:49.021Z,17.57
2022-08-02T00:13:15.784Z,17.55
2022-08-02T00:15:42.585Z,17.52
2022-08-02T00:18:09.385Z,17.44
2022-08-02T00:20:36.220Z,17.12
2022-08-02T00:23:03.204Z,17.39
2022-08-02T00:25:29.992Z,17.46
2022-08-02T00:27:56.697Z,17.41
2022-08-02T00:30:23.548Z,17.02
2022-08-02T00:32:50.311Z,17.18
2022-08-02T00:35:17.330Z,17.27
2022-08-02T00:37:44.340Z,17.15
2022-08-02T00:40:11.904Z,16.79
2022-08-02T00:42:40.005Z,17.08
2022-08-02T00:45:09.400Z,16.99
2022-08-02T00:47:36.364Z,16.94
2022-08-02T00:50:03.715Z,16.86
2022-08-02T00:52:30.491Z,16.58
2022-08-02T00:54:57.473Z,16.86
2022-08-02T00:57:24.265Z,16.63
2022-08-02T01:00:02.159Z,16.69
2022-08-02T01:02:29.092Z,16.71
2022-08-02T01:04:55.899Z,16.62
2022-08-02T01:07:22.684Z,16.53
2022-08-02T01:09:49.531Z,16.33
2022-08-02T01:12:16.716Z,16.49
2022-08-02T01:14:47.059Z,16.36
2022-08-02T01:17:38.808Z,16.47
2022-08-02T01:20:17.304Z,16.59
2022-08-02T01:23:04.363Z,16.67
2022-08-02T01:25:53.502Z,16.34
2022-08-02T01:28:26.099Z,16.40
2022-08-02T01:31:32.779Z,15.95
2022-08-02T01:34:24.939Z,16.28
2022-08-02T01:37:01.085Z,16.04
2022-08-02T01:39:32.342Z,16.31
2022-08-02T01:42:01.460Z,16.19
2022-08-02T01:44:31.998Z,16.33
2022-08-02T01:47:05.724Z,16.32
2022-08-02T01:49:53.119Z,16.31
2022-08-02T01:52:24.110Z,16.28
2022-08-02T01:55:06.909Z,16.42
2022-08-02T01:57:49.779Z,16.56
2022-08-02T02:00:18.043Z,16.51
2022-08-02T02:02:47.944Z,16.20
2022-08-02T02:05:18.363Z,16.68
2022-08-02T02:07:46.828Z,16.26
2022-08-02T02:10:16.900Z,16.46
2022-08-02T02:12:46.824Z,16.57
2022-08-02T02:15:13.918Z,16.53
2022-08-02T02:17:53.209Z,16.57
2022-08-02T02:20:39.822Z,16.62
2022-08-02T02:23:06.741Z,16.57
2022-08-02T02:25:41.401Z,16.62
2022-08-02T02:28:13.105Z,16.66
2022-08-02T02:30:43.085Z,16.73
2022-08-02T02:33:10.722Z,16.61
2022-08-02T02:35:38.539Z,16.57
2022-08-02T02:38:13.816Z,16.58
2022-08-02T02:40:42.179Z,16.52
2022-08-02T02:43:12.323Z,16.61
2022-08-02T02:45:40.737Z,16.63
2022-08-02T02:48:09.491Z,16.67
2022-08-02T02:50:38.585Z,16.54
2022-08-02T02:53:07.163Z,16.57
2022-08-02T02:55:34.579Z,16.57
2022-08-02T02:58:03.051Z,16.69
2022-08-02T03:00:49.203Z,16.93
2022-08-02T03:03:17.020Z,16.94
2022-08-02T03:05:48.582Z,16.93
2022-08-02T03:08:15.472Z,16.84
2022-08-02T03:10:43.963Z,16.80
2022-08-02T03:13:20.041Z,16.73
2022-08-02T03:15:48.060Z,16.76
2022-08-02T03:18:37.592Z,16.70
2022-08-02T03:21:06.552Z,16.65
2022-08-02T03:23:34.119Z,16.75
2022-08-02T03:26:01.411Z,16.83
2022-08-02T03:28:28.513Z,16.70
2022-08-02T03:30:55.319Z,16.68
2022-08-02T03:33:23.999Z,16.87
2022-08-02T03:35:53.117Z,16.94
2022-08-02T03:38:22.803Z,16.78
2022-08-02T03:40:57.987Z,17.01
2022-08-02T03:43:28.584Z,16.68
2022-08-02T03:45:56.114Z,16.95
2022-08-02T03:48:30.523Z,17.00
2022-08-02T03:51:02.731Z,17.01
2022-08-02T03:53:30.213Z,16.99
2022-08-02T03:55:57.891Z,16.76
2022-08-02T03:58:25.614Z,17.18
2022-08-02T04:00:54.508Z,17.11
2022-08-02T04:03:21.600Z,16.72
2022-08-02T04:06:00.809Z,16.94
2022-08-02T04:08:35.244Z,16.90
2022-08-02T04:11:22.928Z,16.92
2022-08-02T04:13:49.987Z,16.87
2022-08-02T04:16:22.857Z,17.07
2022-08-02T04:18:56.916Z,17.00
2022-08-02T04:21:49.117Z,17.22
2022-08-02T04:24:18.946Z,17.21
2022-08-02T04:26:48.084Z,17.17
2022-08-02T04:29:18.674Z,16.98
2022-08-02T04:31:46.016Z,17.17
2022-08-02T04:34:15.399Z,17.21
2022-08-02T04:36:43.283Z,17.19
2022-08-02T04:39:13.462Z,17.11
2022-08-02T04:41:44.532Z,17.27
2022-08-02T04:44:12.526Z,17.29
2022-08-02T04:46:41.087Z,16.99
2022-08-02T04:49:22.051Z,17.00
2022-08-02T04:51:55.354Z,17.38
2022-08-02T04:54:25.931Z,17.38
2022-08-02T04:56:59.831Z,17.10
2022-08-02T04:59:29.854Z,17.36
2022-08-02T05:01:56.610Z,17.40
2022-08-02T05:04:30.651Z,17.41
2022-08-02T05:07:03.849Z,17.35
2022-08-02T05:09:30.742Z,17.50
2022-08-02T05:11:59.575Z,17.48
2022-08-02T05:14:26.389Z,17.63
2022-08-02T05:16:53.282Z,17.39
2022-08-02T05:19:20.076Z,17.43
2022-08-02T05:21:46.875Z,17.73
2022-08-02T05:24:13.970Z,17.65
2022-08-02T05:26:40.771Z,17.57
2022-08-02T05:29:07.500Z,17.86
2022-08-02T05:31:34.198Z,17.86
2022-08-02T05:34:01.043Z,17.84
2022-08-02T05:36:27.862Z,17.56
2022-08-02T05:38:56.762Z,17.91
2022-08-02T05:41:31.662Z,18.15
2022-08-02T05:43:58.546Z,18.19
2022-08-02T05:46:25.283Z,18.46
2022-08-02T05:48:52.087Z,18.56
2022-08-02T05:51:44.392Z,18.59
2022-08-02T05:54:26.819Z,18.76
2022-08-02T05:57:02.526Z,18.99
2022-08-02T05:59:45.371Z,18.99
2022-08-02T06:02:33.970Z,18.95
2022-08-02T06:05:25.419Z,18.95
2022-08-02T06:07:55.305Z,19.02
2022-08-02T06:10:22.558Z,19.05
2022-08-02T06:12:51.170Z,19.14
2022-08-02T06:15:20.309Z,19.07
2022-08-02T06:17:48.093Z,19.16
2022-08-02T06:20:18.168Z,19.17
2022-08-02T06:22:46.652Z,19.14
2022-08-02T06:25:48.144Z,19.12
2022-08-02T06:28:03.343Z,19.17
2022-08-02T06:30:31.377Z,19.07
2022-08-02T06:33:00.446Z,18.90
2022-08-02T06:35:40.209Z,19.37
2022-08-02T06:38:08.721Z,19.45
2022-08-02T06:41:09.678Z,19.47
2022-08-02T06:43:51.241Z,19.29
2022-08-02T06:47:09.114Z,19.58
2022-08-02T06:49:05.202Z,19.34
2022-08-02T06:51:33.043Z,19.50
2022-08-02T06:54:09.039Z,19.63
2022-08-02T06:56:35.821Z,19.43
2022-08-02T06:59:05.979Z,19.63
2022-08-02T07:01:39.046Z,19.64
2022-08-02T07:04:06.343Z,19.72
2022-08-02T07:06:33.262Z,19.74
2022-08-02T07:09:20.133Z,19.87
2022-08-02T07:11:46.894Z,19.87
2022-08-02T07:14:13.631Z,20.40
2022-08-02T07:16:40.551Z,20.50
2022-08-02T07:19:07.325Z,20.54
2022-08-02T07:21:59.403Z,20.85
2022-08-02T07:24:20.924Z,21.69
2022-08-02T07:27:09.624Z,22.23
2022-08-02T07:29:44.998Z,22.53
2022-08-02T07:32:12.657Z,22.88
2022-08-02T07:34:39.851Z,23.34
2022-08-02T07:37:11.872Z,23.43
2022-08-02T07:39:57.710Z,23.17
2022-08-02T07:42:25.198Z,22.48
2022-08-02T07:44:52.433Z,22.43
2022-08-02T07:47:19.279Z,22.92
2022-08-02T07:49:46.330Z,23.35
2022-08-02T07:52:13.571Z,23.56
2022-08-02T07:54:41.856Z,24.01
2022-08-02T07:57:08.958Z,24.45
2022-08-02T07:59:35.842Z,24.42
2022-08-02T08:02:02.699Z,24.68
2022-08-02T08:04:29.680Z,24.70
2022-08-02T08:06:56.921Z,24.58
2022-08-02T08:09:23.987Z,24.45
2022-08-02T08:11:50.871Z,24.26
2022-08-02T08:14:17.869Z,24.24
2022-08-02T08:16:44.771Z,23.75
2022-08-02T08:19:11.596Z,23.91
2022-08-02T08:21:38.433Z,24.24
2022-08-02T08:24:05.666Z,24.58
2022-08-02T08:26:32.652Z,24.73
2022-08-02T08:29:02.046Z,24.63
2022-08-02T08:31:28.962Z,24.71
2022-08-02T08:33:57.977Z,24.33
2022-08-02T08:36:24.922Z,24.78
2022-08-02T08:38:51.722Z,25.41
2022-08-02T08:41:30.151Z,25.71
2022-08-02T08:43:59.288Z,25.78
2022-08-02T08:46:36.925Z,26.14
2022-08-02T08:49:28.568Z,26.61
2022-08-02T08:52:08.743Z,27.26
2022-08-02T08:54:41.951Z,27.51
2022-08-02T08:57:10.690Z,27.72
2022-08-02T08:59:40.514Z,27.35
2022-08-02T09:02:16.501Z,26.17
2022-08-02T09:04:54.856Z,25.97
2022-08-02T09:07:23.319Z,26.00
2022-08-02T09:10:04.591Z,25.26
2022-08-02T09:12:36.833Z,25.86
2022-08-02T09:15:24.889Z,26.68
2022-08-02T09:17:52.287Z,26.30
2022-08-02T09:20:31.308Z,25.57
2022-08-02T09:23:12.468Z,25.90
2022-08-02T09:25:40.525Z,25.67
2022-08-02T09:28:33.860Z,25.69
2022-08-02T09:31:18.643Z,26.03
2022-08-02T09:33:52.000Z,25.92
2022-08-02T09:36:19.352Z,26.19
2022-08-02T09:39:14.043Z,26.50
2022-08-02T09:41:43.066Z,26.94
2022-08-02T09:44:15.935Z,26.62
2022-08-02T09:46:45.341Z,26.91
2022-08-02T09:49:17.448Z,26.70
2022-08-02T09:51:47.489Z,26.69
2022-08-02T09:54:24.114Z,26.06
2022-08-02T09:56:57.455Z,26.76
2022-08-02T09:59:25.766Z,27.53
2022-08-02T10:02:01.812Z,27.00
2022-08-02T10:04:34.307Z,26.51
2022-08-02T10:07:17.200Z,27.18
2022-08-02T10:09:47.598Z,26.91
2022-08-02T10:12:15.594Z,26.91
2022-08-02T10:14:43.921Z,26.76
2022-08-02T10:17:11.182Z,26.72
2022-08-02T10:20:00.047Z,26.57
2022-08-02T10:22:25.882Z,26.58
2022-08-02T10:24:53.726Z,26.80
2022-08-02T10:27:21.958Z,27.21
2022-08-02T10:29:55.098Z,27.26
2022-08-02T10:32:40.194Z,27.37
2022-08-02T10:35:19.402Z,27.74
2022-08-02T10:38:01.590Z,27.70
2022-08-02T10:40:51.924Z,27.14
2022-08-02T10:43:36.733Z,26.97
2022-08-02T10:46:23.674Z,27.29
2022-08-02T10:51:59.319Z,27.42
2022-08-02T10:54:37.601Z,27.25
2022-08-02T10:57:15.584Z,27.22
2022-08-02T10:59:43.459Z,27.34
2022-08-02T11:02:10.417Z,27.23
2022-08-02T11:04:37.152Z,27.39
2022-08-02T11:07:23.497Z,27.45
2022-08-02T11:09:50.964Z,27.27
2022-08-02T11:12:21.190Z,27.86
2022-08-02T11:15:01.588Z,27.95
2022-08-02T11:17:38.245Z,27.62
2022-08-02T11:20:17.669Z,27.81
2022-08-02T11:22:46.130Z,27.92
2022-08-02T11:25:25.019Z,27.29
2022-08-02T11:28:00.095Z,27.93
2022-08-02T11:30:27.669Z,28.80
2022-08-02T11:32:59.007Z,29.39
2022-08-02T11:35:37.423Z,28.74
2022-08-02T11:38:18.760Z,29.38
2022-08-02T11:40:46.638Z,29.82
2022-08-02T11:43:20.699Z,29.88
2022-08-02T11:45:49.548Z,29.63
2022-08-02T11:48:31.263Z,29.65
2022-08-02T11:51:16.551Z,29.59
2022-08-02T11:53:54.479Z,29.25
2022-08-02T11:56:29.538Z,29.34
2022-08-02T11:59:08.877Z,29.53
2022-08-02T12:01:45.265Z,29.79
2022-08-02T12:04:17.080Z,29.81
2022-08-02T12:06:44.104Z,29.67
2022-08-02T12:09:18.665Z,29.68
2022-08-02T12:11:50.668Z,29.92
2022-08-02T12:14:17.712Z,29.51
2022-08-02T12:17:03.492Z,30.27
2022-08-02T12:19:30.432Z,30.57
2022-08-02T12:22:18.217Z,30.59
2022-08-02T12:24:50.706Z,30.27
2022-08-02T12:27:32.826Z,31.26
2022-08-02T12:30:14.468Z,31.73
2022-08-02T12:32:41.871Z,31.49
2022-08-02T12:35:26.646Z,31.43
2022-08-02T12:37:54.200Z,31.60
2022-08-02T12:40:31.620Z,31.10
2022-08-02T12:43:05.551Z,31.66
2022-08-02T12:45:54.338Z,32.62
2022-08-02T12:48:56.580Z,32.62
2022-08-02T12:51:51.214Z,32.73
2022-08-02T12:54:32.077Z,32.55
2022-08-02T12:57:11.707Z,31.83
2022-08-02T12:59:41.372Z,31.95
2022-08-02T13:02:13.266Z,31.60
2022-08-02T13:04:40.550Z,32.29
2022-08-02T13:07:08.591Z,32.46
2022-08-02T13:09:44.500Z,32.95
2022-08-02T13:12:12.034Z,33.33
2022-08-02T13:14:42.224Z,33.68
2022-08-02T13:17:10.390Z,33.15
2022-08-02T13:19:38.702Z,33.13
2022-08-02T13:22:06.056Z,33.27
2022-08-02T13:24:40.201Z,33.08
2022-08-02T13:27:21.233Z,32.80
2022-08-02T13:29:49.211Z,32.46
2022-08-02T13:32:16.894Z,31.70
2022-08-02T13:34:44.304Z,32.03
2022-08-02T13:37:12.648Z,32.27
2022-08-02T13:39:39.459Z,33.17
2022-08-02T13:42:07.213Z,32.98
2022-08-02T13:44:34.860Z,32.38
2022-08-02T13:47:02.639Z,32.37
2022-08-02T13:49:51.425Z,32.73
2022-08-02T13:52:17.134Z,32.37
2022-08-02T13:54:44.419Z,32.08
2022-08-02T13:57:11.322Z,32.41
2022-08-02T13:59:57.227Z,32.34
2022-08-02T14:02:25.389Z,32.09
2022-08-02T14:04:52.159Z,32.85
2022-08-02T14:07:19.028Z,32.84
2022-08-02T14:09:46.070Z,33.03
2022-08-02T14:12:13.535Z,33.25
2022-08-02T14:14:40.580Z,33.69
2022-08-02T14:17:07.455Z,34.01
2022-08-02T14:19:34.380Z,32.54
2022-08-02T14:22:11.242Z,31.97
2022-08-02T14:24:40.120Z,31.91
2022-08-02T14:27:07.437Z,32.84
2022-08-02T14:29:34.824Z,33.38
2022-08-02T14:32:01.861Z,33.26
2022-08-02T14:34:29.297Z,32.50
2022-08-02T14:36:56.966Z,33.32
2022-08-02T14:39:24.200Z,33.84
2022-08-02T14:41:59.863Z,33.86
2022-08-02T14:44:28.969Z,33.55
2022-08-02T14:46:56.410Z,33.51
2022-08-02T14:49:25.292Z,33.30
2022-08-02T14:51:56.508Z,32.86
2022-08-02T14:54:30.908Z,32.95
2022-08-02T14:57:03.451Z,32.11
2022-08-02T14:59:31.055Z,32.24
2022-08-02T15:01:59.038Z,31.57
2022-08-02T15:04:26.101Z,31.11
2022-08-02T15:06:53.496Z,30.89
2022-08-02T15:09:21.374Z,30.76
2022-08-02T15:11:49.341Z,30.06
2022-08-02T15:14:26.194Z,29.43
2022-08-02T15:16:57.525Z,28.87
2022-08-02T15:19:38.533Z,28.67
2022-08-02T15:22:15.941Z,28.07
2022-08-02T15:24:44.670Z,28.03
2022-08-02T15:27:15.839Z,27.87
2022-08-02T15:29:44.132Z,27.92
2022-08-02T15:32:11.824Z,27.79
2022-08-02T15:34:39.417Z,27.57
2022-08-02T15:37:06.561Z,27.73
2022-08-02T15:39:33.419Z,27.65
2022-08-02T15:42:00.166Z,27.77
2022-08-02T15:44:26.966Z,28.38
2022-08-02T15:47:00.219Z,28.73
2022-08-02T15:49:27.366Z,28.91
2022-08-02T15:51:54.865Z,29.42
2022-08-02T15:54:23.482Z,29.50
2022-08-02T15:56:50.598Z,29.39
2022-08-02T15:59:17.930Z,29.18
2022-08-02T16:01:47.781Z,29.07
2022-08-02T16:04:16.272Z,29.14
2022-08-02T16:06:43.916Z,29.44
2022-08-02T16:09:11.088Z,29.25
2022-08-02T16:11:38.586Z,29.53
2022-08-02T16:14:05.591Z,29.77
2022-08-02T16:16:35.544Z,29.40
2022-08-02T16:19:29.996Z,29.17
2022-08-02T16:21:52.291Z,29.09
2022-08-02T16:24:19.060Z,29.06
2022-08-02T16:26:45.928Z,28.92
2022-08-02T16:29:13.075Z,28.54
2022-08-02T16:31:42.439Z,28.34
2022-08-02T16:34:10.141Z,28.41
2022-08-02T16:36:37.289Z,28.51
2022-08-02T16:39:07.620Z,28.68
2022-08-02T16:41:51.090Z,28.24
2022-08-02T16:44:27.565Z,28.40
2022-08-02T16:47:01.283Z,28.70
2022-08-02T16:50:05.485Z,28.42
2022-08-02T16:52:16.599Z,28.42
2022-08-02T16:54:49.454Z,28.16
2022-08-02T16:57:19.822Z,28.19
2022-08-02T16:59:57.372Z,28.07
2022-08-02T17:02:27.971Z,27.85
2022-08-02T17:04:55.575Z,28.00
2022-08-02T17:08:08.662Z,27.74
2022-08-02T17:10:13.571Z,27.36
2022-08-02T17:12:45.851Z,27.18
2022-08-02T17:16:17.321Z,27.44
2022-08-02T17:18:05.515Z,27.16
2022-08-02T17:20:36.252Z,27.21
2022-08-02T17:23:07.302Z,27.08
2022-08-02T17:25:41.826Z,26.54
2022-08-02T17:28:09.568Z,26.32
2022-08-02T17:30:36.684Z,26.06
2022-08-02T17:33:03.958Z,25.76
2022-08-02T17:35:43.210Z,25.49
2022-08-02T17:38:26.334Z,25.88
2022-08-02T17:40:55.829Z,25.82
2022-08-02T17:43:22.924Z,25.62
2022-08-02T17:46:00.077Z,25.53
2022-08-02T17:48:50.266Z,25.13
2022-08-02T17:52:14.922Z,24.72
2022-08-02T17:54:09.309Z,24.87
2022-08-02T17:56:37.426Z,24.73
2022-08-02T17:59:20.862Z,24.51
2022-08-02T18:02:03.860Z,24.18
2022-08-02T18:04:31.548Z,23.71
2022-08-02T18:07:03.884Z,23.62
2022-08-02T18:09:32.413Z,23.60
2022-08-02T18:12:01.383Z,23.41
2022-08-02T18:14:28.183Z,23.32
2022-08-02T18:16:56.215Z,23.15
2022-08-02T18:19:42.751Z,22.87
2022-08-02T18:22:11.570Z,22.54
2022-08-02T18:24:40.763Z,22.49
2022-08-02T18:27:07.835Z,22.55
2022-08-02T18:29:38.510Z,22.27
2022-08-02T18:32:11.813Z,22.34
2022-08-02T18:34:39.920Z,22.30
2022-08-02T18:37:07.229Z,22.09
2022-08-02T18:39:38.479Z,21.80
2022-08-02T18:42:06.877Z,21.87
2022-08-02T18:44:34.026Z,21.78
2022-08-02T18:47:03.358Z,21.59
2022-08-02T18:49:46.767Z,21.45
2022-08-02T18:55:17.088Z,21.36
2022-08-02T18:58:18.464Z,20.98
2022-08-02T19:00:39.650Z,20.84
2022-08-02T19:03:07.019Z,20.98
2022-08-02T19:05:52.146Z,20.37
2022-08-02T19:08:25.546Z,20.36
2022-08-02T19:10:56.155Z,20.34
2022-08-02T19:13:24.919Z,20.50
2022-08-02T19:16:12.330Z,20.47
2022-08-02T19:18:39.900Z,20.57
2022-08-02T19:21:08.572Z,20.55
2022-08-02T19:23:36.222Z,20.54
2022-08-02T19:26:04.051Z,20.50
2022-08-02T19:28:31.743Z,20.44
2022-08-02T19:31:01.480Z,20.43
2022-08-02T19:34:04.442Z,20.30
2022-08-02T19:36:17.145Z,19.84
2022-08-02T19:38:45.660Z,20.05
2022-08-02T19:41:16.291Z,20.03
2022-08-02T19:44:25.767Z,19.70
2022-08-02T19:46:31.317Z,20.02
2022-08-02T19:49:16.582Z,19.65
2022-08-02T19:51:55.051Z,19.79
2022-08-02T19:55:59.449Z,19.79
2022-08-02T19:58:11.532Z,19.75
2022-08-02T20:00:40.078Z,19.98
2022-08-02T20:03:16.166Z,19.41
2022-08-02T20:09:58.197Z,19.43
2022-08-02T20:13:08.328Z,19.42
2022-08-02T20:15:56.100Z,19.36
2022-08-02T20:43:57.021Z,18.68
2022-08-02T20:46:53.696Z,18.70
2022-08-02T20:50:35.681Z,18.86
2022-08-02T20:57:07.368Z,18.17
2022-08-02T21:00:36.288Z,18.20
2022-08-02T21:03:05.358Z,18.30
2022-08-02T21:09:16.931Z,17.92
2022-08-02T21:12:06.239Z,18.10
2022-08-02T21:15:17.437Z,18.01
2022-08-02T21:18:07.353Z,18.43
2022-08-02T21:21:18.732Z,17.89
2022-08-02T21:28:01.052Z,17.99
2022-08-02T21:30:48.153Z,17.65
2022-08-02T21:34:21.574Z,17.72
2022-08-02T21:40:31.911Z,17.54
2022-08-02T21:44:05.013Z,17.92
2022-08-02T21:47:47.968Z,17.79
2022-08-02T21:50:37.701Z,17.11
2022-08-02T21:54:17.770Z,17.44
2022-08-02T22:06:13.862Z,17.08
2022-08-02T22:09:46.063Z,17.34
2022-08-02T22:12:31.562Z,17.31
2022-08-02T22:15:36.203Z,16.87
2022-08-02T22:22:09.109Z,17.33
2022-08-02T22:28:35.817Z,17.17
2022-08-02T22:30:45.111Z,17.17
2022-08-02T22:33:37.880Z,17.16
2022-08-02T22:36:05.285Z,17.12
2022-08-02T22:38:32.073Z,17.04
2022-08-02T22:40:59.396Z,16.96
2022-08-02T22:43:27.419Z,16.94
2022-08-02T22:45:58.196Z,17.02
2022-08-02T22:48:25.077Z,16.92
2022-08-02T22:50:51.845Z,16.93
2022-08-02T22:53:35.585Z,16.94
2022-08-02T22:56:04.455Z,16.81
2022-08-02T22:58:32.036Z,16.86
2022-08-02T22:58:45.839Z,21.24
2022-08-02T23:03:33.698Z,16.92
2022-08-02T23:06:00.523Z,16.82
2022-08-02T23:08:27.269Z,16.73
2022-08-02T23:10:54.000Z,16.64
2022-08-02T23:13:22.431Z,16.61
2022-08-02T23:16:10.890Z,16.48
2022-08-02T23:18:56.452Z,16.54
2022-08-02T23:21:45.558Z,16.57
2022-08-02T23:24:10.356Z,16.63
2022-08-02T23:26:37.095Z,16.58
2022-08-02T23:29:03.852Z,16.64
2022-08-02T23:31:37.497Z,16.48
2022-08-02T23:34:05.937Z,16.39
2022-08-02T23:36:34.033Z,16.38
2022-08-02T23:39:00.857Z,16.34
2022-08-02T23:41:28.209Z,16.35
2022-08-02T23:44:12.586Z,16.45
2022-08-02T23:46:42.370Z,16.34
2022-08-02T23:49:09.497Z,16.30
2022-08-02T23:51:36.328Z,16.26
2022-08-02T23:54:03.062Z,16.30
2022-08-02T23:56:30.334Z,16.15
2022-08-02T23:58:57.084Z,16.15
